Time;durP1;ratioP1;P1;durP2;ratioP2;P2;SDS_P1;SDS_P2;PMS_P1;PMS_P2;Temp;Humidity;BMP_temperature;BMP_pressure;BME280_temperature;BME280_humidity;BME280_pressure;Samples;Min_cycle;Max_cycle;Signal;HPM_P1;HPM_P2
2023/11/09 00:00:07;;;;;;;0.70;0.40;;;10.50;99.90;;;;;;5074578;28;20060;-85
2023/11/09 00:02:34;;;;;;;0.80;0.40;;;10.50;99.90;;;;;;5077500;28;20071;-85
2023/11/09 00:04:59;;;;;;;1.88;0.40;;;10.50;99.90;;;;;;5077789;28;20034;-85
2023/11/09 00:07:25;;;;;;;1.02;0.45;;;10.50;99.90;;;;;;5070777;28;20419;-86
2023/11/09 00:09:52;;;;;;;2.38;0.32;;;10.40;99.90;;;;;;5075928;28;20129;-85
2023/11/09 00:12:20;;;;;;;1.00;0.40;;;10.40;99.90;;;;;;5071662;28;20021;-86
2023/11/09 00:14:49;;;;;;;0.93;0.30;;;10.40;99.90;;;;;;5074083;28;20020;-86
2023/11/09 00:17:16;;;;;;;1.58;0.40;;;10.40;99.90;;;;;;5075001;28;20046;-85
2023/11/09 00:19:42;;;;;;;1.60;0.40;;;10.40;99.90;;;;;;5077147;28;20032;-87
2023/11/09 00:22:09;;;;;;;1.10;0.40;;;10.40;99.90;;;;;;5073954;28;20032;-86
2023/11/09 00:24:34;;;;;;;1.48;0.40;;;10.40;99.90;;;;;;5076527;28;20077;-87
2023/11/09 00:27:00;;;;;;;1.77;0.43;;;10.40;99.90;;;;;;5072279;28;20024;-86
2023/11/09 00:29:26;;;;;;;1.27;0.50;;;10.40;99.90;;;;;;5069800;28;20032;-86
2023/11/09 00:31:51;;;;;;;1.15;0.40;;;10.30;99.90;;;;;;5076843;28;20438;-86
2023/11/09 00:34:17;;;;;;;0.77;0.40;;;10.30;99.90;;;;;;5076812;28;20034;-86
2023/11/09 00:36:42;;;;;;;1.25;0.40;;;10.30;99.90;;;;;;5076730;28;20082;-87
2023/11/09 00:39:12;;;;;;;1.33;0.50;;;10.30;99.90;;;;;;5075661;28;20077;-86
2023/11/09 00:41:39;;;;;;;1.77;0.82;;;10.30;99.90;;;;;;5076730;28;20050;-86
2023/11/09 00:44:05;;;;;;;1.63;0.50;;;10.30;99.90;;;;;;5077322;28;20020;-85
2023/11/09 00:46:30;;;;;;;0.93;0.50;;;10.30;99.90;;;;;;5064942;28;20632;-86
2023/11/09 00:48:56;;;;;;;2.72;0.50;;;10.30;99.90;;;;;;5066919;28;20084;-86
2023/11/09 00:51:22;;;;;;;1.65;0.50;;;10.30;99.90;;;;;;5076476;28;20020;-87
2023/11/09 00:53:48;;;;;;;0.85;0.45;;;10.30;99.90;;;;;;5066287;28;20024;-86
2023/11/09 00:56:15;;;;;;;1.10;0.50;;;10.30;99.90;;;;;;5090490;28;20024;-87
2023/11/09 00:58:40;;;;;;;1.33;0.50;;;10.30;99.90;;;;;;5087612;28;20056;-87
2023/11/09 01:01:06;;;;;;;1.75;0.50;;;10.30;99.90;;;;;;5075548;28;20074;-86
2023/11/09 01:03:31;;;;;;;1.08;0.50;;;10.30;99.90;;;;;;5075192;28;20052;-86
2023/11/09 01:06:00;;;;;;;0.80;0.40;;;10.30;99.90;;;;;;5076277;28;20030;-87
2023/11/09 01:08:26;;;;;;;1.00;0.50;;;10.30;99.90;;;;;;5076328;28;20032;-86
2023/11/09 01:10:52;;;;;;;1.98;0.60;;;10.30;99.90;;;;;;5089900;28;20142;-85
2023/11/09 01:13:17;;;;;;;0.88;0.50;;;10.30;99.90;;;;;;5075141;28;20067;-86
2023/11/09 01:15:43;;;;;;;1.33;0.40;;;10.30;99.90;;;;;;5087328;28;20024;-85
2023/11/09 01:18:11;;;;;;;2.97;0.40;;;10.30;99.90;;;;;;5076085;28;20017;-85
2023/11/09 01:20:36;;;;;;;0.90;0.50;;;10.40;99.90;;;;;;5091915;28;20039;-85
2023/11/09 01:23:02;;;;;;;1.00;0.50;;;10.40;99.90;;;;;;5075275;28;20087;-85
2023/11/09 01:25:28;;;;;;;1.42;0.40;;;10.30;99.90;;;;;;5085480;28;20028;-86
2023/11/09 01:27:54;;;;;;;1.30;0.50;;;10.40;99.90;;;;;;5076313;28;20032;-85
2023/11/09 01:30:20;;;;;;;1.38;0.52;;;10.40;99.90;;;;;;5073364;28;20035;-86
2023/11/09 01:32:45;;;;;;;2.20;0.60;;;10.40;99.90;;;;;;5073849;28;20060;-85
2023/11/09 01:35:12;;;;;;;1.85;0.60;;;10.40;99.90;;;;;;5075982;28;20066;-85
2023/11/09 01:37:38;;;;;;;1.40;0.52;;;10.30;99.90;;;;;;5075303;28;20028;-84
2023/11/09 01:40:04;;;;;;;1.05;0.50;;;10.30;99.90;;;;;;5092494;28;20155;-85
2023/11/09 01:42:30;;;;;;;2.47;0.57;;;10.30;99.90;;;;;;5090996;28;20025;-85
2023/11/09 01:44:55;;;;;;;2.28;0.50;;;10.30;99.90;;;;;;5075321;28;20027;-86
2023/11/09 01:47:22;;;;;;;2.30;0.52;;;10.30;99.90;;;;;;5075273;28;20396;-86
2023/11/09 01:49:49;;;;;;;0.95;0.50;;;10.30;99.90;;;;;;5072317;28;20029;-85
2023/11/09 01:52:15;;;;;;;1.65;0.50;;;10.30;99.90;;;;;;5075955;28;20028;-86
2023/11/09 01:54:41;;;;;;;2.65;0.50;;;10.30;99.90;;;;;;5086844;28;20039;-86
2023/11/09 01:57:09;;;;;;;1.50;0.60;;;10.30;99.90;;;;;;5075663;28;20024;-86
2023/11/09 01:59:38;;;;;;;2.00;0.70;;;10.30;99.90;;;;;;5062058;28;20449;-86
2023/11/09 02:02:05;;;;;;;1.10;0.50;;;10.30;99.90;;;;;;5085624;28;20048;-86
2023/11/09 02:04:30;;;;;;;2.10;0.80;;;10.30;99.90;;;;;;5072399;28;20029;-86
2023/11/09 02:06:56;;;;;;;2.35;0.60;;;10.30;99.90;;;;;;5083188;28;20028;-86
2023/11/09 02:09:22;;;;;;;2.85;0.50;;;10.30;99.90;;;;;;5068035;28;20032;-88
2023/11/09 02:11:48;;;;;;;2.03;0.52;;;10.40;99.90;;;;;;5091493;28;20476;-86
2023/11/09 02:14:15;;;;;;;1.10;0.70;;;10.30;99.90;;;;;;5073001;28;20056;-89
2023/11/09 02:16:41;;;;;;;1.10;0.57;;;10.30;99.90;;;;;;5074084;28;20028;-89
2023/11/09 02:19:08;;;;;;;1.15;0.63;;;10.40;99.90;;;;;;5075358;28;20031;-89
2023/11/09 02:21:35;;;;;;;1.83;0.82;;;10.40;99.90;;;;;;5072092;28;20071;-85
2023/11/09 02:24:04;;;;;;;2.33;0.60;;;10.40;99.90;;;;;;5073957;28;20028;-85
2023/11/09 02:26:30;;;;;;;2.85;0.60;;;10.40;99.90;;;;;;5058854;28;20024;-86
2023/11/09 02:28:55;;;;;;;1.67;0.50;;;10.40;99.90;;;;;;5074661;28;20024;-86
2023/11/09 02:31:21;;;;;;;1.38;0.60;;;10.40;99.90;;;;;;5067571;28;20036;-90
2023/11/09 02:33:47;;;;;;;1.27;0.60;;;10.40;99.90;;;;;;5085247;28;20089;-89
2023/11/09 02:36:12;;;;;;;1.27;0.60;;;10.40;99.90;;;;;;5084638;28;20503;-87
2023/11/09 02:38:38;;;;;;;1.38;0.63;;;10.40;99.90;;;;;;5088888;28;20024;-89
2023/11/09 02:41:08;;;;;;;1.40;0.60;;;10.40;99.90;;;;;;5072206;28;20505;-88
2023/11/09 02:43:39;;;;;;;1.13;0.60;;;10.40;99.90;;;;;;5070799;28;20043;-87
2023/11/09 02:46:06;;;;;;;2.20;0.65;;;10.40;99.90;;;;;;5080653;28;20379;-89
2023/11/09 02:48:31;;;;;;;1.15;0.55;;;10.40;99.90;;;;;;5073628;28;20029;-87
2023/11/09 02:50:57;;;;;;;1.63;0.80;;;10.40;99.90;;;;;;5091513;28;20032;-89
2023/11/09 02:53:22;;;;;;;1.10;0.68;;;10.40;99.90;;;;;;5073772;28;20133;-86
2023/11/09 02:55:48;;;;;;;2.38;0.70;;;10.40;99.90;;;;;;5074652;28;20111;-89
2023/11/09 02:58:13;;;;;;;1.42;0.80;;;10.40;99.90;;;;;;5073731;28;20027;-89
2023/11/09 03:00:39;;;;;;;1.40;0.70;;;10.40;99.90;;;;;;5071626;28;20040;-90
2023/11/09 03:03:05;;;;;;;1.65;0.80;;;10.40;99.90;;;;;;5074175;28;20488;-88
2023/11/09 03:05:30;;;;;;;3.15;0.98;;;10.40;99.90;;;;;;5091139;28;20028;-89
2023/11/09 03:07:56;;;;;;;1.40;0.88;;;10.40;99.90;;;;;;5074839;28;20021;-88
2023/11/09 03:10:21;;;;;;;1.35;0.93;;;10.40;99.90;;;;;;5091539;28;20051;-89
2023/11/09 03:12:47;;;;;;;1.45;1.00;;;10.40;99.90;;;;;;5069619;28;20036;-89
2023/11/09 03:15:13;;;;;;;2.55;0.95;;;10.40;99.90;;;;;;5073483;28;20056;-89
2023/11/09 03:17:42;;;;;;;1.60;1.00;;;10.40;99.90;;;;;;5088410;28;20024;-89
2023/11/09 03:20:09;;;;;;;1.85;1.20;;;10.40;99.90;;;;;;5070834;28;20051;-88
2023/11/09 03:22:36;;;;;;;3.83;1.38;;;10.40;99.90;;;;;;5078727;28;20028;-89
2023/11/09 03:25:03;;;;;;;2.03;1.50;;;10.50;99.90;;;;;;5068637;28;20025;-89
2023/11/09 03:27:29;;;;;;;2.30;1.35;;;10.40;99.90;;;;;;5076329;28;20549;-90
2023/11/09 03:29:54;;;;;;;1.60;1.00;;;10.50;99.90;;;;;;5077701;28;20036;-89
2023/11/09 03:32:20;;;;;;;2.50;0.98;;;10.50;99.90;;;;;;5077149;28;20024;-89
2023/11/09 03:34:46;;;;;;;1.83;1.20;;;10.50;99.90;;;;;;5079854;28;20077;-89
2023/11/09 03:37:11;;;;;;;2.80;1.50;;;10.50;99.90;;;;;;5078005;28;20032;-88
2023/11/09 03:39:37;;;;;;;2.00;1.58;;;10.50;99.90;;;;;;5078229;28;20063;-88
2023/11/09 03:42:02;;;;;;;3.35;1.45;;;10.50;99.90;;;;;;5094676;28;20442;-89
2023/11/09 03:44:38;;;;;;;1.75;1.25;;;10.50;99.90;;;;;;5083003;28;20448;-89
2023/11/09 03:47:04;;;;;;;3.08;1.65;;;10.50;99.90;;;;;;5072769;28;20028;-89
2023/11/09 03:49:29;;;;;;;3.05;1.52;;;10.50;99.90;;;;;;5095922;28;20544;-90
2023/11/09 03:51:55;;;;;;;1.85;1.45;;;10.50;99.90;;;;;;5074318;28;20055;-88
2023/11/09 03:54:21;;;;;;;2.30;1.33;;;10.50;99.90;;;;;;5069379;28;20443;-89
2023/11/09 03:56:46;;;;;;;2.20;1.52;;;10.50;99.90;;;;;;5068095;28;20128;-89
2023/11/09 03:59:12;;;;;;;3.15;1.70;;;10.50;99.90;;;;;;5077976;28;20123;-89
2023/11/09 04:01:37;;;;;;;4.00;1.98;;;10.60;99.90;;;;;;5077021;28;20126;-89
2023/11/09 04:04:05;;;;;;;4.45;1.80;;;10.60;99.90;;;;;;5090355;28;20032;-90
2023/11/09 04:06:31;;;;;;;3.88;1.45;;;10.60;99.90;;;;;;5073822;28;20122;-89
2023/11/09 04:08:56;;;;;;;2.53;1.30;;;10.60;99.90;;;;;;5076379;28;20104;-89
2023/11/09 04:11:22;;;;;;;4.03;1.45;;;10.60;99.90;;;;;;5077516;28;20024;-89
2023/11/09 04:13:47;;;;;;;3.60;1.70;;;10.60;99.90;;;;;;5077151;28;20028;-87
2023/11/09 04:16:13;;;;;;;2.30;1.33;;;10.70;99.90;;;;;;5077485;28;20055;-88
2023/11/09 04:18:38;;;;;;;3.55;1.58;;;10.70;99.90;;;;;;5077471;28;20027;-89
2023/11/09 04:21:05;;;;;;;3.35;1.92;;;10.70;99.90;;;;;;5077302;28;20491;-89
2023/11/09 04:23:31;;;;;;;3.80;1.80;;;10.70;99.90;;;;;;5077497;28;20451;-89
2023/11/09 04:25:57;;;;;;;3.35;2.10;;;10.70;99.90;;;;;;5089526;28;20032;-90
2023/11/09 04:28:22;;;;;;;3.22;2.20;;;10.80;99.90;;;;;;5077339;28;20050;-87
2023/11/09 04:30:50;;;;;;;5.95;2.40;;;10.80;99.90;;;;;;5070165;28;20033;-89
2023/11/09 04:33:17;;;;;;;4.03;2.47;;;10.80;99.90;;;;;;5092262;28;20020;-89
2023/11/09 04:35:46;;;;;;;4.25;2.60;;;10.80;99.90;;;;;;5064294;28;20032;-89
2023/11/09 04:38:15;;;;;;;4.00;2.30;;;10.80;99.90;;;;;;5076029;28;20024;-89
2023/11/09 04:40:44;;;;;;;4.18;2.42;;;10.80;99.90;;;;;;5093260;28;20042;-90
2023/11/09 04:43:11;;;;;;;4.13;2.42;;;10.80;99.90;;;;;;5087232;28;20025;-89
2023/11/09 04:45:41;;;;;;;3.47;2.67;;;10.80;99.90;;;;;;5088829;28;20016;-89
2023/11/09 04:48:09;;;;;;;3.95;2.90;;;10.90;99.90;;;;;;5089946;28;20024;-88
2023/11/09 04:50:37;;;;;;;4.43;3.25;;;10.90;99.90;;;;;;5094349;28;20075;-89
2023/11/09 04:53:29;;;;;;;4.25;3.28;;;10.90;99.90;;;;;;5093280;28;20020;-88
2023/11/09 04:56:03;;;;;;;3.53;3.13;;;10.90;99.90;;;;;;5093388;28;21752;-89
2023/11/09 04:58:47;;;;;;;5.57;3.63;;;10.90;99.90;;;;;;5076708;28;20031;-88
2023/11/09 05:06:48;;;;;;;5.10;3.67;;;10.90;99.90;;;;;;5086052;28;20047;-88
2023/11/09 05:06:52;;;;;;;5.60;4.40;;;10.90;99.90;;;;;;5092231;28;20591;-89
2023/11/09 05:09:23;;;;;;;4.68;4.00;;;10.90;99.90;;;;;;5076550;28;20035;-88
2023/11/09 05:11:49;;;;;;;5.47;3.85;;;10.90;99.90;;;;;;5065274;28;20119;-87
2023/11/09 05:14:16;;;;;;;5.43;4.53;;;10.90;99.90;;;;;;5072953;28;20055;-89
2023/11/09 05:16:42;;;;;;;6.47;5.20;;;10.90;99.90;;;;;;5076060;28;20049;-89
2023/11/09 05:19:08;;;;;;;6.68;4.55;;;10.90;99.90;;;;;;5072418;28;20130;-89
2023/11/09 05:21:33;;;;;;;6.30;4.10;;;10.90;99.90;;;;;;5067709;28;20040;-89
2023/11/09 05:23:59;;;;;;;5.55;4.00;;;10.90;99.90;;;;;;5078740;28;20020;-89
2023/11/09 05:26:28;;;;;;;4.43;3.45;;;10.90;99.90;;;;;;5075882;28;20391;-89
2023/11/09 05:28:54;;;;;;;5.53;3.65;;;10.80;99.90;;;;;;5088194;28;20031;-88
2023/11/09 05:31:20;;;;;;;4.90;3.28;;;10.80;99.90;;;;;;5075764;28;20070;-89
2023/11/09 05:33:47;;;;;;;3.33;2.65;;;10.70;99.90;;;;;;5076614;28;20035;-88
2023/11/09 05:36:12;;;;;;;2.97;2.28;;;10.70;99.90;;;;;;5062840;28;20051;-88
2023/11/09 05:38:39;;;;;;;4.72;2.85;;;10.60;99.90;;;;;;5075851;28;20020;-88
2023/11/09 05:41:04;;;;;;;6.22;2.75;;;10.60;99.90;;;;;;5075626;28;20571;-89
2023/11/09 05:43:30;;;;;;;3.22;1.88;;;10.60;99.90;;;;;;5075673;28;20102;-88
2023/11/09 05:45:56;;;;;;;4.53;1.85;;;10.50;99.90;;;;;;5083997;28;20115;-88
2023/11/09 05:48:22;;;;;;;3.97;1.30;;;10.50;99.90;;;;;;5074765;28;20029;-88
2023/11/09 05:50:48;;;;;;;5.75;2.45;;;10.50;99.90;;;;;;5074039;28;20062;-89
2023/11/09 05:53:13;;;;;;;6.10;1.95;;;10.40;99.90;;;;;;5074791;28;20024;-88
2023/11/09 05:55:39;;;;;;;5.00;1.98;;;10.40;99.90;;;;;;5074146;28;20544;-88
2023/11/09 05:58:04;;;;;;;3.63;1.80;;;10.40;99.90;;;;;;5084038;28;20475;-89
2023/11/09 06:00:30;;;;;;;5.13;2.22;;;10.40;99.90;;;;;;5073880;28;20047;-89
2023/11/09 06:02:58;;;;;;;7.55;2.60;;;10.40;99.90;;;;;;5073457;28;20058;-88
2023/11/09 06:05:27;;;;;;;5.38;2.10;;;10.40;99.90;;;;;;5075215;28;20030;-88
2023/11/09 06:07:53;;;;;;;5.05;2.10;;;10.40;99.90;;;;;;5075299;28;20035;-88
2023/11/09 06:10:20;;;;;;;3.50;1.90;;;10.30;99.90;;;;;;5077115;28;20471;-88
2023/11/09 06:12:46;;;;;;;8.70;2.40;;;10.30;99.90;;;;;;5072989;28;20089;-87
2023/11/09 06:15:15;;;;;;;8.43;2.47;;;10.30;99.90;;;;;;5076011;28;20021;-88
2023/11/09 06:17:43;;;;;;;6.97;2.65;;;10.30;99.90;;;;;;5070119;28;20455;-88
2023/11/09 06:20:14;;;;;;;5.63;3.10;;;10.30;99.90;;;;;;5073073;28;20027;-88
2023/11/09 06:22:40;;;;;;;7.00;2.78;;;10.20;99.90;;;;;;5074304;28;20032;-87
2023/11/09 06:25:07;;;;;;;5.30;2.45;;;10.20;99.90;;;;;;5071485;28;20032;-88
2023/11/09 06:27:33;;;;;;;8.13;2.53;;;10.20;99.90;;;;;;5086593;28;20507;-87
2023/11/09 06:29:58;;;;;;;5.43;3.13;;;10.10;99.90;;;;;;5089307;28;20028;-88
2023/11/09 06:32:25;;;;;;;4.47;2.55;;;10.10;99.90;;;;;;5082791;28;20028;-87
2023/11/09 06:34:51;;;;;;;5.95;3.40;;;10.10;99.90;;;;;;5074724;28;20062;-87
2023/11/09 06:37:17;;;;;;;6.35;2.47;;;10.10;99.90;;;;;;5087745;28;20109;-87
2023/11/09 06:39:46;;;;;;;5.68;2.33;;;10.10;99.90;;;;;;5089158;28;20089;-87
2023/11/09 06:42:12;;;;;;;7.78;1.80;;;10.00;99.90;;;;;;5074807;28;20494;-87
2023/11/09 06:44:38;;;;;;;8.32;2.30;;;10.00;99.90;;;;;;5073929;28;20062;-87
2023/11/09 06:47:04;;;;;;;7.30;1.92;;;10.00;99.90;;;;;;5075313;28;20031;-88
2023/11/09 06:49:29;;;;;;;5.45;1.90;;;10.00;99.90;;;;;;5073468;28;20518;-87
2023/11/09 06:51:56;;;;;;;5.22;1.95;;;10.00;99.90;;;;;;5084128;28;20370;-87
2023/11/09 06:54:22;;;;;;;5.72;2.15;;;10.00;99.90;;;;;;5080752;28;20061;-86
2023/11/09 06:56:48;;;;;;;5.50;1.80;;;10.00;99.90;;;;;;5074485;28;20035;-87
2023/11/09 06:59:13;;;;;;;3.83;1.60;;;10.00;99.90;;;;;;5076912;28;20028;-87
2023/11/09 07:01:39;;;;;;;6.43;2.17;;;10.00;99.90;;;;;;5075655;28;20040;-87
2023/11/09 07:04:05;;;;;;;6.15;2.28;;;10.00;99.90;;;;;;5076486;28;20051;-88
2023/11/09 07:06:31;;;;;;;6.43;2.38;;;10.00;99.90;;;;;;5095152;28;20028;-87
2023/11/09 07:08:57;;;;;;;7.57;2.95;;;10.10;99.90;;;;;;5077135;28;20029;-88
2023/11/09 07:11:22;;;;;;;5.85;2.38;;;10.00;99.90;;;;;;5071823;28;20047;-88
2023/11/09 07:13:48;;;;;;;7.10;3.00;;;10.00;99.90;;;;;;5073453;28;20082;-88
2023/11/09 07:16:14;;;;;;;7.55;3.50;;;10.00;99.90;;;;;;5087895;28;20024;-88
2023/11/09 07:18:40;;;;;;;11.20;3.55;;;10.10;99.90;;;;;;5067081;28;20051;-88
2023/11/09 07:21:08;;;;;;;9.10;4.28;;;10.10;99.90;;;;;;5073957;28;20523;-87
2023/11/09 07:23:34;;;;;;;8.45;4.20;;;10.10;99.90;;;;;;5066723;28;20096;-87
2023/11/09 07:25:59;;;;;;;11.95;4.93;;;10.10;99.90;;;;;;5089725;28;20111;-87
2023/11/09 07:28:25;;;;;;;9.60;5.00;;;10.10;99.90;;;;;;5076737;28;20032;-87
2023/11/09 07:30:52;;;;;;;9.98;5.70;;;10.10;99.90;;;;;;5076953;28;20383;-87
2023/11/09 07:33:18;;;;;;;10.73;5.85;;;10.10;99.90;;;;;;5075779;28;20024;-87
2023/11/09 07:35:44;;;;;;;10.60;6.22;;;10.10;99.90;;;;;;5063787;28;20035;-87
2023/11/09 07:38:13;;;;;;;16.00;6.97;;;10.10;99.90;;;;;;5068721;28;20016;-87
2023/11/09 07:40:40;;;;;;;13.15;7.88;;;10.10;99.90;;;;;;5076079;28;20036;-87
2023/11/09 07:43:08;;;;;;;16.80;7.90;;;10.10;99.90;;;;;;5106286;28;20057;-86
2023/11/09 07:45:34;;;;;;;12.45;8.10;;;10.10;99.90;;;;;;5080980;28;20035;-88
2023/11/09 07:47:59;;;;;;;16.08;8.82;;;10.10;99.90;;;;;;5073198;28;20024;-88
2023/11/09 07:50:25;;;;;;;15.88;9.60;;;10.20;99.90;;;;;;5086005;28;20408;-87
2023/11/09 07:52:50;;;;;;;15.60;9.15;;;10.10;99.90;;;;;;5064512;28;20078;-87
2023/11/09 07:55:17;;;;;;;23.58;10.50;;;10.20;99.90;;;;;;5069926;28;20077;-87
2023/11/09 07:57:45;;;;;;;19.83;10.43;;;10.10;99.90;;;;;;5076423;28;20524;-88
2023/11/09 08:00:11;;;;;;;19.83;11.43;;;10.10;99.90;;;;;;5070269;28;20040;-87
2023/11/09 08:02:38;;;;;;;21.90;12.15;;;10.10;99.90;;;;;;5073041;28;20446;-87
2023/11/09 08:05:05;;;;;;;20.83;11.88;;;10.00;99.90;;;;;;5076533;28;20024;-87
2023/11/09 08:07:31;;;;;;;22.80;12.05;;;10.00;99.90;;;;;;5076313;28;20027;-87
2023/11/09 08:09:56;;;;;;;22.83;13.43;;;10.00;99.90;;;;;;5075090;28;20028;-87
2023/11/09 08:12:23;;;;;;;22.55;13.15;;;10.00;99.90;;;;;;5076469;28;20032;-87
2023/11/09 08:14:49;;;;;;;25.25;14.52;;;9.90;99.90;;;;;;5081185;28;20082;-87
2023/11/09 08:17:14;;;;;;;28.88;13.88;;;10.00;99.90;;;;;;5070104;28;20025;-87
2023/11/09 08:19:40;;;;;;;24.50;14.05;;;10.00;99.90;;;;;;5076784;28;20032;-87
2023/11/09 08:22:06;;;;;;;29.83;14.75;;;10.00;99.90;;;;;;5069418;28;20399;-88
2023/11/09 08:24:32;;;;;;;26.33;15.05;;;10.00;99.90;;;;;;5090465;28;20024;-87
2023/11/09 08:26:58;;;;;;;23.98;14.05;;;9.90;99.90;;;;;;5075897;28;20023;-88
2023/11/09 08:29:24;;;;;;;24.30;14.57;;;9.90;99.90;;;;;;5080702;28;20030;-87
2023/11/09 08:31:49;;;;;;;24.20;14.93;;;9.90;99.90;;;;;;5071594;28;20152;-87
2023/11/09 08:34:16;;;;;;;24.77;14.82;;;9.90;99.90;;;;;;5079427;28;20391;-88
2023/11/09 08:36:42;;;;;;;29.13;15.88;;;9.90;99.90;;;;;;5082843;28;20528;-87
2023/11/09 08:39:09;;;;;;;26.35;15.15;;;9.90;99.90;;;;;;5075202;28;20033;-88
2023/11/09 08:41:38;;;;;;;26.75;15.63;;;9.90;99.90;;;;;;5081743;28;20508;-87
2023/11/09 08:44:04;;;;;;;32.25;17.67;;;9.90;99.90;;;;;;5098367;28;20035;-89
2023/11/09 08:46:30;;;;;;;30.08;17.10;;;10.00;99.90;;;;;;5078225;28;20032;-89
2023/11/09 08:48:56;;;;;;;33.05;17.92;;;10.00;99.90;;;;;;5072550;28;20039;-88
2023/11/09 08:51:22;;;;;;;31.48;16.70;;;10.00;99.90;;;;;;5091026;28;20030;-89
2023/11/09 08:53:48;;;;;;;30.08;18.38;;;10.00;99.90;;;;;;5071990;28;20020;-88
2023/11/09 08:56:14;;;;;;;35.83;18.67;;;9.90;99.90;;;;;;5074178;28;20016;-88
2023/11/09 08:58:40;;;;;;;31.80;17.25;;;10.00;99.90;;;;;;5078351;28;20027;-89
2023/11/09 09:01:16;;;;;;;32.60;17.00;;;10.00;99.90;;;;;;5081686;28;20074;-88
2023/11/09 09:03:45;;;;;;;32.33;18.42;;;10.00;99.90;;;;;;5072740;28;20318;-88
2023/11/09 09:06:12;;;;;;;34.05;19.50;;;10.00;99.90;;;;;;5084221;28;20066;-89
2023/11/09 09:08:39;;;;;;;37.70;20.52;;;10.00;99.90;;;;;;5077523;28;20067;-88
2023/11/09 09:11:05;;;;;;;34.25;20.92;;;10.10;99.90;;;;;;5077761;28;20028;-89
2023/11/09 09:13:31;;;;;;;33.45;20.48;;;10.20;99.90;;;;;;5078310;28;20036;-89
2023/11/09 09:15:56;;;;;;;36.97;21.00;;;10.30;99.90;;;;;;5076770;28;20041;-88
2023/11/09 09:18:23;;;;;;;37.25;19.88;;;10.30;99.90;;;;;;5075890;28;20080;-90
2023/11/09 09:20:49;;;;;;;38.60;20.13;;;10.30;99.90;;;;;;5082239;28;20039;-89
2023/11/09 09:23:16;;;;;;;35.38;19.40;;;10.30;99.90;;;;;;5074350;28;20103;-89
2023/11/09 09:25:42;;;;;;;33.45;17.95;;;10.30;99.90;;;;;;5076601;28;20294;-88
2023/11/09 09:28:09;;;;;;;42.75;20.75;;;10.30;99.90;;;;;;5076868;28;20031;-89
2023/11/09 09:30:35;;;;;;;35.50;19.25;;;10.30;99.90;;;;;;5076902;28;20036;-89
2023/11/09 09:33:01;;;;;;;37.17;18.52;;;10.30;99.90;;;;;;5078257;28;20467;-89
2023/11/09 09:35:28;;;;;;;40.63;19.88;;;10.30;99.90;;;;;;5077572;28;20033;-89
2023/11/09 09:37:54;;;;;;;32.10;17.38;;;10.30;99.90;;;;;;5081299;28;20021;-89
2023/11/09 09:40:23;;;;;;;36.85;17.98;;;10.30;99.90;;;;;;5064226;28;20092;-89
2023/11/09 09:42:53;;;;;;;35.20;18.00;;;10.30;99.90;;;;;;5091588;28;20039;-89
2023/11/09 09:45:22;;;;;;;35.60;17.95;;;10.30;99.90;;;;;;5072348;28;20477;-88
2023/11/09 09:47:53;;;;;;;34.47;18.08;;;10.30;99.90;;;;;;5095007;28;20107;-88
2023/11/09 09:50:22;;;;;;;35.85;18.02;;;10.40;99.90;;;;;;5076416;28;20104;-90
2023/11/09 09:52:51;;;;;;;29.13;15.23;;;10.40;99.90;;;;;;5075468;28;20031;-88
2023/11/09 09:55:19;;;;;;;31.85;16.70;;;10.50;99.90;;;;;;5070843;28;20021;-88
2023/11/09 09:57:45;;;;;;;35.80;15.45;;;10.50;99.90;;;;;;5073992;28;20069;-89
2023/11/09 10:00:28;;;;;;;39.72;15.30;;;10.50;99.90;;;;;;5066731;28;20033;-89
2023/11/09 10:03:06;;;;;;;26.65;14.27;;;10.50;99.90;;;;;;5094426;28;20040;-89
2023/11/09 10:05:33;;;;;;;27.95;12.82;;;10.60;99.90;;;;;;5077277;28;20428;-88
2023/11/09 10:08:05;;;;;;;30.27;13.98;;;10.60;99.90;;;;;;5083654;28;20059;-89
2023/11/09 10:10:33;;;;;;;27.90;12.20;;;10.70;99.90;;;;;;5072593;28;20510;-88
2023/11/09 10:13:01;;;;;;;23.75;11.30;;;10.70;99.90;;;;;;5092740;28;20036;-87
2023/11/09 10:15:26;;;;;;;29.50;11.60;;;10.70;99.90;;;;;;5064286;28;20028;-88
2023/11/09 10:17:56;;;;;;;23.15;11.25;;;10.80;99.90;;;;;;5077854;28;20034;-88
2023/11/09 10:20:21;;;;;;;21.52;9.68;;;10.80;99.90;;;;;;5090459;28;20040;-89
2023/11/09 10:22:52;;;;;;;20.40;8.73;;;10.80;99.90;;;;;;5085753;28;20046;-88
2023/11/09 10:25:18;;;;;;;20.02;8.35;;;10.80;99.90;;;;;;5091445;28;20414;-89
2023/11/09 10:27:49;;;;;;;26.27;8.00;;;10.80;99.90;;;;;;5075796;28;20020;-90
2023/11/09 10:30:18;;;;;;;17.45;6.97;;;10.80;99.90;;;;;;5064172;28;20051;-90
2023/11/09 10:32:44;;;;;;;17.20;6.43;;;10.90;99.90;;;;;;5069632;28;20441;-89
2023/11/09 10:35:16;;;;;;;17.02;6.82;;;10.80;99.90;;;;;;5072090;28;20020;-89
2023/11/09 10:37:43;;;;;;;18.63;6.70;;;10.90;99.90;;;;;;5072277;28;20351;-89
2023/11/09 10:40:13;;;;;;;18.33;5.88;;;10.90;99.90;;;;;;5071994;28;20123;-89
2023/11/09 10:42:39;;;;;;;22.50;6.43;;;10.90;99.90;;;;;;5072780;28;20040;-88
2023/11/09 10:45:10;;;;;;;21.35;6.05;;;11.10;99.90;;;;;;5089424;28;20020;-90
2023/11/09 10:47:39;;;;;;;13.82;5.13;;;11.20;99.90;;;;;;5072310;28;20039;-90
2023/11/09 10:50:13;;;;;;;13.57;4.30;;;11.20;99.90;;;;;;5075730;28;20111;-90
2023/11/09 10:52:42;;;;;;;21.52;4.65;;;11.20;99.90;;;;;;5071667;28;20071;-88
2023/11/09 10:55:09;;;;;;;10.70;3.55;;;11.30;99.90;;;;;;5073606;28;20024;-89
2023/11/09 10:57:37;;;;;;;17.35;3.53;;;11.30;99.90;;;;;;5071648;28;20032;-89
2023/11/09 11:00:03;;;;;;;18.05;3.33;;;11.20;99.90;;;;;;5075072;28;20120;-90
2023/11/09 11:02:34;;;;;;;10.50;2.92;;;11.20;99.90;;;;;;5054812;28;20040;-89
2023/11/09 11:05:03;;;;;;;11.73;3.53;;;11.20;99.90;;;;;;5063213;28;20035;-90
2023/11/09 11:07:29;;;;;;;14.98;2.70;;;11.30;99.90;;;;;;5062438;28;20036;-89
2023/11/09 11:09:56;;;;;;;15.82;3.20;;;11.30;99.90;;;;;;5064174;28;20020;-89
2023/11/09 11:12:23;;;;;;;13.48;3.25;;;11.30;99.90;;;;;;5087298;28;20024;-89
2023/11/09 11:14:51;;;;;;;14.32;2.83;;;11.40;99.90;;;;;;5073347;28;20024;-88
2023/11/09 11:17:39;;;;;;;12.85;2.58;;;11.40;99.90;;;;;;5089925;28;20446;-87
2023/11/09 11:20:35;;;;;;;17.67;1.95;;;11.40;99.90;;;;;;5084585;28;20024;-91
2023/11/09 11:23:18;;;;;;;11.00;2.53;;;11.30;99.90;;;;;;5074127;28;20039;-87
2023/11/09 11:26:05;;;;;;;11.48;1.88;;;11.30;99.90;;;;;;5077573;28;20115;-89
2023/11/09 11:28:31;;;;;;;10.70;1.50;;;11.40;99.90;;;;;;5090824;28;20024;-88
2023/11/09 11:31:04;;;;;;;33.17;2.65;;;11.40;99.90;;;;;;5063067;28;20024;-90
2023/11/09 11:33:29;;;;;;;9.80;0.90;;;11.40;99.90;;;;;;5072472;28;20395;-89
2023/11/09 11:35:56;;;;;;;6.75;0.90;;;11.50;99.90;;;;;;5074401;28;20036;-90
2023/11/09 11:38:29;;;;;;;9.68;1.38;;;11.50;99.90;;;;;;5085492;28;20028;-88
2023/11/09 11:41:04;;;;;;;12.23;1.40;;;11.50;99.90;;;;;;5072193;28;20032;-88
2023/11/09 11:43:41;;;;;;;9.50;1.10;;;11.50;99.90;;;;;;5075858;28;20028;-87
2023/11/09 11:46:17;;;;;;;9.38;1.30;;;11.50;99.90;;;;;;5061762;28;20024;-88
2023/11/09 11:48:53;;;;;;;12.38;1.15;;;11.50;99.90;;;;;;5070641;28;20336;-89
2023/11/09 11:51:19;;;;;;;9.82;1.20;;;11.60;99.90;;;;;;5069424;28;20049;-91
2023/11/09 11:53:52;;;;;;;8.93;0.98;;;11.50;99.90;;;;;;5078691;28;20032;-90
2023/11/09 11:56:24;;;;;;;7.93;1.23;;;11.50;99.90;;;;;;5071971;28;20436;-90
2023/11/09 11:58:55;;;;;;;;;;;11.50;99.90;;;;;;5085697;28;20024;-90
2023/11/09 12:01:28;;;;;;;11.23;0.95;;;11.50;99.90;;;;;;5079057;28;19923;-88
2023/11/09 12:03:58;;;;;;;14.65;1.40;;;11.40;99.90;;;;;;5075337;28;20039;-89
2023/11/09 12:06:25;;;;;;;9.25;1.13;;;11.50;99.90;;;;;;5084155;28;20391;-90
2023/11/09 12:09:02;;;;;;;8.90;1.15;;;11.60;99.90;;;;;;5089980;28;20028;-88
2023/11/09 12:11:36;;;;;;;7.13;0.90;;;11.70;99.90;;;;;;5069696;28;20137;-88
2023/11/09 12:14:02;;;;;;;9.43;0.95;;;11.80;99.90;;;;;;5076870;28;20038;-90
2023/11/09 12:16:29;;;;;;;8.63;1.00;;;11.90;99.90;;;;;;5073099;28;20434;-90
2023/11/09 12:19:01;;;;;;;8.63;0.80;;;11.90;99.90;;;;;;5071557;28;20085;-90
2023/11/09 12:21:27;;;;;;;8.63;1.02;;;12.10;99.90;;;;;;5079565;28;20040;-89
2023/11/09 12:23:56;;;;;;;11.07;1.40;;;12.40;99.90;;;;;;5082676;28;20588;-89
2023/11/09 12:26:23;;;;;;;7.32;1.10;;;12.60;99.90;;;;;;5073998;28;20024;-90
2023/11/09 12:28:50;;;;;;;15.43;1.05;;;12.70;99.90;;;;;;5082235;28;20329;-89
2023/11/09 12:31:24;;;;;;;8.73;1.05;;;12.70;99.90;;;;;;5067095;28;20063;-88
2023/11/09 12:34:09;;;;;;;10.65;1.13;;;12.70;99.90;;;;;;5078254;28;20028;-89
2023/11/09 12:36:35;;;;;;;10.65;1.80;;;12.60;99.90;;;;;;5087369;28;20479;-88
2023/11/09 12:39:15;;;;;;;10.57;0.90;;;12.50;99.90;;;;;;5079236;28;20031;-88
2023/11/09 12:41:40;;;;;;;9.90;0.90;;;12.50;99.90;;;;;;5070817;28;20040;-88
2023/11/09 12:44:08;;;;;;;10.77;1.10;;;12.50;99.90;;;;;;5075316;28;20021;-87
2023/11/09 12:46:35;;;;;;;8.27;1.73;;;12.50;99.90;;;;;;5078204;28;20420;-87